createdAt,value
2018-09-04T00:00:03.193Z,19.8
2018-09-04T00:01:13.322Z,19.74
2018-09-04T00:02:23.462Z,19.81
2018-09-04T00:03:33.310Z,19.78
2018-09-04T00:04:43.423Z,19.73
2018-09-04T00:05:52.991Z,19.77
2018-09-04T00:07:02.300Z,19.83
2018-09-04T00:08:12.145Z,19.76
2018-09-04T00:09:21.718Z,19.73
2018-09-04T00:10:31.576Z,19.65
2018-09-04T00:11:41.423Z,19.68
2018-09-04T00:12:51.551Z,19.61
2018-09-04T00:14:00.858Z,19.59
2018-09-04T00:15:10.432Z,19.61
2018-09-04T00:16:19.459Z,19.56
2018-09-04T00:17:29.305Z,19.59
2018-09-04T00:18:39.147Z,19.59
2018-09-04T00:19:48.722Z,19.61
2018-09-04T00:20:58.295Z,19.54
2018-09-04T00:22:08.143Z,19.59
2018-09-04T00:23:17.449Z,19.59
2018-09-04T00:24:27.290Z,19.5
2018-09-04T00:25:36.869Z,19.48
2018-09-04T00:26:46.988Z,19.48
2018-09-04T00:27:57.122Z,19.48
2018-09-04T00:29:06.694Z,19.58
2018-09-04T00:30:16.538Z,19.48
2018-09-04T00:31:25.888Z,19.43
2018-09-04T00:32:35.738Z,19.39
2018-09-04T00:33:45.340Z,19.41
2018-09-04T00:34:55.202Z,19.41
2018-09-04T00:36:05.043Z,19.4
2018-09-04T00:37:14.619Z,19.37
2018-09-04T00:38:24.440Z,19.29
2018-09-04T00:39:34.030Z,19.28
2018-09-04T00:40:43.876Z,19.37
2018-09-04T00:41:52.912Z,19.25
2018-09-04T00:43:02.808Z,19.25
2018-09-04T00:44:12.652Z,19.21
2018-09-04T00:45:22.830Z,19.26
2018-09-04T00:46:32.406Z,19.25
2018-09-04T00:47:41.974Z,19.26
2018-09-04T00:48:51.014Z,19.31
2018-09-04T00:50:00.327Z,19.18
2018-09-04T00:51:09.899Z,19.16
2018-09-04T00:52:19.477Z,19.21
2018-09-04T00:53:29.324Z,19.16
2018-09-04T00:54:38.899Z,19.19
2018-09-04T00:55:48.743Z,19.1
2018-09-04T00:56:58.585Z,19.11
2018-09-04T00:58:08.167Z,19.07
2018-09-04T00:59:18.279Z,19.06
2018-09-04T01:00:28.125Z,19.04
2018-09-04T01:01:37.161Z,19.1
2018-09-04T01:02:47.277Z,19.04
2018-09-04T01:03:57.118Z,19.07
2018-09-04T01:05:06.978Z,19.04
2018-09-04T01:06:17.093Z,19.11
2018-09-04T01:07:27.216Z,19
2018-09-04T01:08:36.795Z,18.94
2018-09-04T01:09:46.904Z,18.91
2018-09-04T01:10:55.937Z,18.94
2018-09-04T01:12:05.795Z,18.98
2018-09-04T01:13:15.639Z,18.82
2018-09-04T01:14:25.237Z,18.85
2018-09-04T01:15:34.811Z,18.94
2018-09-04T01:16:44.387Z,19.02
2018-09-04T01:17:54.233Z,19
2018-09-04T01:19:04.086Z,18.84
2018-09-04T01:20:13.927Z,18.81
2018-09-04T01:21:23.776Z,18.85
2018-09-04T01:22:33.895Z,18.87
2018-09-04T01:23:43.477Z,18.81
2018-09-04T01:24:53.057Z,18.85
2018-09-04T01:26:03.219Z,18.73
2018-09-04T01:27:13.062Z,18.78
2018-09-04T01:28:22.647Z,18.81
2018-09-04T01:29:32.754Z,18.85
2018-09-04T01:30:42.600Z,18.75
2018-09-04T01:31:52.712Z,18.81
2018-09-04T01:33:02.561Z,18.7
2018-09-04T01:34:12.684Z,18.69
2018-09-04T01:35:22.545Z,18.72
2018-09-04T01:36:31.852Z,18.69
2018-09-04T01:37:41.432Z,18.65
2018-09-04T01:38:51.002Z,18.7
2018-09-04T01:40:00.573Z,18.65
2018-09-04T01:41:10.194Z,18.66
2018-09-04T01:42:19.494Z,18.69
2018-09-04T01:43:28.258Z,18.66
2018-09-04T01:44:37.294Z,18.62
2018-09-04T01:45:47.138Z,18.6
2018-09-04T01:46:56.710Z,18.66
2018-09-04T01:48:06.561Z,18.55
2018-09-04T01:49:16.417Z,18.6
2018-09-04T01:50:26.260Z,18.54
2018-09-04T01:51:36.371Z,18.57
2018-09-04T01:52:46.490Z,18.55
2018-09-04T01:53:56.342Z,18.57
2018-09-04T01:55:05.427Z,18.57
2018-09-04T01:56:15.271Z,18.42
2018-09-04T01:57:25.113Z,18.52
2018-09-04T01:58:34.420Z,18.57
2018-09-04T01:59:44.527Z,18.48
2018-09-04T02:00:54.103Z,18.45
2018-09-04T02:02:03.944Z,18.5
2018-09-04T02:03:14.057Z,18.5
2018-09-04T02:04:23.628Z,18.39
2018-09-04T02:05:32.931Z,18.36
2018-09-04T02:06:42.775Z,18.42
2018-09-04T02:07:52.885Z,18.33
2018-09-04T02:09:03.003Z,18.3
2018-09-04T02:10:12.579Z,18.3
2018-09-04T02:11:22.421Z,18.33
2018-09-04T02:12:32.274Z,18.32
2018-09-04T02:13:42.116Z,18.3
2018-09-04T02:14:51.689Z,18.18
2018-09-04T02:16:01.262Z,18.14
2018-09-04T02:17:10.561Z,18.23
2018-09-04T02:18:20.134Z,18.23
2018-09-04T02:19:29.759Z,18.18
2018-09-04T02:20:39.599Z,18.12
2018-09-04T02:21:49.242Z,18.11
2018-09-04T02:22:58.816Z,18.15
2018-09-04T02:24:08.403Z,18.26
2018-09-04T02:25:17.986Z,18.23
2018-09-04T02:26:27.553Z,18.21
2018-09-04T02:27:37.393Z,18.23
2018-09-04T02:28:46.697Z,18.05
2018-09-04T02:29:56.274Z,18.21
2018-09-04T02:31:06.120Z,18.15
2018-09-04T02:32:15.971Z,18.25
2018-09-04T02:33:25.817Z,18.21
2018-09-04T02:34:35.950Z,18.14
2018-09-04T02:35:45.522Z,18.07
2018-09-04T02:36:55.107Z,18.07
2018-09-04T02:38:05.255Z,18.1
2018-09-04T02:39:14.558Z,18.08
2018-09-04T02:40:23.861Z,18.02
2018-09-04T02:41:33.708Z,18
2018-09-04T02:42:43.290Z,18.02
2018-09-04T02:43:53.405Z,17.97
2018-09-04T02:45:02.986Z,18.08
2018-09-04T02:46:13.102Z,17.93
2018-09-04T02:47:22.679Z,17.96
2018-09-04T02:48:32.799Z,17.87
2018-09-04T02:49:42.376Z,17.86
2018-09-04T02:50:52.498Z,17.84
2018-09-04T02:52:02.662Z,17.93
2018-09-04T02:53:12.256Z,17.9
2018-09-04T02:54:22.101Z,17.82
2018-09-04T02:55:31.943Z,17.81
2018-09-04T02:56:41.533Z,17.92
2018-09-04T02:57:51.370Z,17.82
2018-09-04T02:59:01.490Z,17.84
2018-09-04T03:00:11.075Z,17.79
2018-09-04T03:01:20.380Z,17.81
2018-09-04T03:02:29.966Z,17.78
2018-09-04T03:03:39.860Z,17.64
2018-09-04T03:04:49.707Z,17.72
2018-09-04T03:05:59.553Z,17.79
2018-09-04T03:07:08.861Z,17.68
2018-09-04T03:08:17.894Z,17.68
2018-09-04T03:09:27.488Z,17.64
2018-09-04T03:10:36.790Z,17.68
2018-09-04T03:11:46.642Z,17.56
2018-09-04T03:12:56.481Z,17.59
2018-09-04T03:14:06.511Z,17.64
2018-09-04T03:15:16.088Z,17.54
2018-09-04T03:16:25.392Z,17.46
2018-09-04T03:17:34.424Z,17.54
2018-09-04T03:18:44.267Z,17.52
2018-09-04T03:19:54.158Z,17.48
2018-09-04T03:21:03.733Z,17.49
2018-09-04T03:22:12.769Z,17.56
2018-09-04T03:23:22.366Z,17.56
2018-09-04T03:24:31.947Z,17.56
2018-09-04T03:25:41.526Z,17.59
2018-09-04T03:26:51.635Z,17.56
2018-09-04T03:28:01.215Z,17.51
2018-09-04T03:29:11.325Z,17.54
2018-09-04T03:30:21.202Z,17.51
2018-09-04T03:31:31.344Z,17.49
2018-09-04T03:32:41.208Z,17.51
2018-09-04T03:33:51.048Z,17.49
2018-09-04T03:35:00.352Z,17.48
2018-09-04T03:36:09.930Z,17.48
2018-09-04T03:37:19.509Z,17.44
2018-09-04T03:38:29.632Z,17.46
2018-09-04T03:39:39.470Z,17.4
2018-09-04T03:40:49.318Z,17.37
2018-09-04T03:41:58.905Z,17.37
2018-09-04T03:43:08.745Z,17.36
2018-09-04T03:44:18.369Z,17.34
2018-09-04T03:45:28.768Z,17.31
2018-09-04T03:46:38.076Z,17.36
2018-09-04T03:47:47.648Z,17.3
2018-09-04T03:48:57.229Z,17.25
2018-09-04T03:50:06.803Z,17.3
2018-09-04T03:51:16.659Z,17.25
2018-09-04T03:52:26.265Z,17.19
2018-09-04T03:53:36.562Z,17.19
2018-09-04T03:54:46.706Z,17.25
2018-09-04T03:55:56.009Z,17.21
2018-09-04T03:57:05.585Z,17.19
2018-09-04T03:58:15.708Z,17.22
2018-09-04T03:59:25.825Z,17.16
2018-09-04T04:00:35.950Z,17.11
2018-09-04T04:01:46.059Z,17.08
2018-09-04T04:02:55.633Z,17.15
2018-09-04T04:04:05.526Z,17.14
2018-09-04T04:05:15.376Z,17.08
2018-09-04T04:06:25.218Z,17.11
2018-09-04T04:07:35.069Z,17.06
2018-09-04T04:08:45.180Z,17.11
2018-09-04T04:09:55.356Z,17.06
2018-09-04T04:11:05.466Z,16.97
2018-09-04T04:12:15.609Z,17.03
2018-09-04T04:13:25.179Z,16.97
2018-09-04T04:14:34.757Z,17.03
2018-09-04T04:15:44.881Z,16.98
2018-09-04T04:16:54.194Z,16.96
2018-09-04T04:18:04.049Z,16.89
2018-09-04T04:19:14.168Z,16.96
2018-09-04T04:20:23.200Z,16.91
2018-09-04T04:21:32.512Z,16.96
2018-09-04T04:22:42.134Z,16.93
2018-09-04T04:23:52.168Z,16.98
2018-09-04T04:25:01.515Z,16.91
2018-09-04T04:26:11.087Z,16.91
2018-09-04T04:27:21.253Z,16.98
2018-09-04T04:28:31.098Z,16.98
2018-09-04T04:29:40.412Z,16.94
2018-09-04T04:30:49.713Z,16.97
2018-09-04T04:31:59.827Z,16.93
2018-09-04T04:33:09.596Z,16.88
2018-09-04T04:34:19.499Z,16.82
2018-09-04T04:35:29.073Z,16.88
2018-09-04T04:36:38.930Z,16.89
2018-09-04T04:37:49.045Z,16.88
2018-09-04T04:38:58.888Z,16.91
2018-09-04T04:40:08.592Z,16.88
2018-09-04T04:41:18.323Z,16.88
2018-09-04T04:42:28.178Z,16.89
2018-09-04T04:43:38.025Z,16.75
2018-09-04T04:44:48.140Z,16.85
2018-09-04T04:45:57.710Z,16.93
2018-09-04T04:47:07.023Z,16.86
2018-09-04T04:48:17.051Z,16.83
2018-09-04T04:49:27.388Z,16.85
2018-09-04T04:50:37.504Z,16.79
2018-09-04T04:51:47.089Z,16.78
2018-09-04T04:52:57.206Z,16.78
2018-09-04T04:54:06.774Z,16.76
2018-09-04T04:55:16.913Z,16.76
2018-09-04T04:56:27.028Z,16.73
2018-09-04T04:57:36.329Z,16.76
2018-09-04T04:58:45.899Z,16.68
2018-09-04T04:59:55.742Z,16.7
2018-09-04T05:01:05.320Z,16.7
2018-09-04T05:02:15.436Z,16.71
2018-09-04T05:03:24.472Z,16.81
2018-09-04T05:04:33.774Z,16.78
2018-09-04T05:05:43.896Z,16.7
2018-09-04T05:06:53.465Z,16.68
2018-09-04T05:08:03.036Z,16.71
2018-09-04T05:09:12.885Z,16.7
2018-09-04T05:10:22.193Z,16.75
2018-09-04T05:11:32.497Z,16.79
2018-09-04T05:12:43.130Z,16.73
2018-09-04T05:13:52.717Z,16.76
2018-09-04T05:15:02.577Z,16.71
2018-09-04T05:16:12.430Z,16.71
2018-09-04T05:17:22.612Z,16.75
2018-09-04T05:18:32.176Z,16.75
2018-09-04T05:19:42.289Z,16.7
2018-09-04T05:20:52.129Z,16.71
2018-09-04T05:22:01.438Z,16.73
2018-09-04T05:23:11.001Z,16.73
2018-09-04T05:24:20.840Z,16.81
2018-09-04T05:25:30.682Z,16.71
2018-09-04T05:26:40.267Z,16.73
2018-09-04T05:27:49.842Z,16.71
2018-09-04T05:28:59.954Z,16.68
2018-09-04T05:30:09.312Z,16.71
2018-09-04T05:31:18.612Z,16.76
2018-09-04T05:32:28.458Z,16.75
2018-09-04T05:33:38.311Z,16.76
2018-09-04T05:34:48.189Z,16.75
2018-09-04T05:35:58.030Z,16.73
2018-09-04T05:37:07.877Z,16.71
2018-09-04T05:38:17.996Z,16.76
2018-09-04T05:39:27.299Z,16.78
2018-09-04T05:40:36.614Z,16.78
2018-09-04T05:41:46.199Z,16.75
2018-09-04T05:42:55.777Z,16.75
2018-09-04T05:44:05.352Z,16.76
2018-09-04T05:45:14.973Z,16.78
2018-09-04T05:46:24.828Z,16.76
2018-09-04T05:47:34.401Z,16.82
2018-09-04T05:48:43.440Z,16.82
2018-09-04T05:49:53.016Z,16.85
2018-09-04T05:51:02.863Z,16.89
2018-09-04T05:52:12.433Z,16.78
2018-09-04T05:53:22.277Z,16.79
2018-09-04T05:54:32.393Z,16.86
2018-09-04T05:55:42.509Z,16.91
2018-09-04T05:56:52.358Z,16.89
2018-09-04T05:58:02.215Z,16.85
2018-09-04T05:59:11.544Z,16.89
2018-09-04T06:00:21.122Z,16.91
2018-09-04T06:01:30.965Z,16.93
2018-09-04T06:02:40.808Z,16.97
2018-09-04T06:03:50.120Z,16.96
2018-09-04T06:04:59.696Z,16.94
2018-09-04T06:06:09.275Z,16.98
2018-09-04T06:07:19.385Z,16.94
2018-09-04T06:08:29.236Z,16.94
2018-09-04T06:09:39.083Z,17.04
2018-09-04T06:10:49.214Z,17.03
2018-09-04T06:11:59.328Z,16.96
2018-09-04T06:13:08.912Z,17.04
2018-09-04T06:14:19.025Z,16.97
2018-09-04T06:15:28.333Z,16.94
2018-09-04T06:16:37.907Z,16.96
2018-09-04T06:17:48.024Z,17.03
2018-09-04T06:18:57.875Z,17.03
2018-09-04T06:20:08.301Z,17.11
2018-09-04T06:21:17.972Z,17.11
2018-09-04T06:22:27.544Z,17.04
2018-09-04T06:23:37.123Z,17.06
2018-09-04T06:24:46.981Z,17.11
2018-09-04T06:25:56.576Z,17.15
2018-09-04T06:27:06.422Z,17.06
2018-09-04T06:28:15.999Z,17.15
2018-09-04T06:29:25.658Z,17.07
2018-09-04T06:30:35.962Z,17.08
2018-09-04T06:31:45.536Z,17.21
2018-09-04T06:32:55.659Z,17.14
2018-09-04T06:34:05.665Z,17.19
2018-09-04T06:35:16.049Z,17.16
2018-09-04T06:36:25.629Z,17.26
2018-09-04T06:37:37.042Z,17.25
2018-09-04T06:38:46.894Z,17.26
2018-09-04T06:39:56.468Z,17.31
2018-09-04T06:41:06.335Z,17.26
2018-09-04T06:42:16.448Z,17.28
2018-09-04T06:43:26.563Z,17.26
2018-09-04T06:44:36.406Z,17.28
2018-09-04T06:45:46.252Z,17.36
2018-09-04T06:46:55.569Z,17.4
2018-09-04T06:48:05.147Z,17.28
2018-09-04T06:49:14.766Z,17.38
2018-09-04T06:50:24.612Z,17.41
2018-09-04T06:51:34.463Z,17.46
2018-09-04T06:52:44.309Z,17.46
2018-09-04T06:53:54.155Z,17.48
2018-09-04T06:55:03.742Z,17.56
2018-09-04T06:56:13.318Z,17.54
2018-09-04T06:57:23.170Z,17.51
2018-09-04T06:58:32.468Z,17.41
2018-09-04T06:59:42.357Z,17.48
2018-09-04T07:00:52.480Z,17.46
2018-09-04T07:02:02.326Z,17.4
2018-09-04T07:03:12.182Z,17.48
2018-09-04T07:04:22.032Z,17.41
2018-09-04T07:05:31.605Z,17.51
2018-09-04T07:06:41.723Z,17.56
2018-09-04T07:07:51.575Z,17.56
2018-09-04T07:09:01.691Z,17.54
2018-09-04T07:10:11.005Z,17.64
2018-09-04T07:11:20.576Z,17.66
2018-09-04T07:12:30.419Z,17.71
2018-09-04T07:13:40.540Z,17.72
2018-09-04T07:14:50.660Z,17.66
2018-09-04T07:16:00.802Z,17.79
2018-09-04T07:17:10.732Z,17.72
2018-09-04T07:18:21.194Z,17.81
2018-09-04T07:19:31.047Z,17.9
2018-09-04T07:20:41.162Z,17.87
2018-09-04T07:21:50.466Z,17.93
2018-09-04T07:23:00.042Z,17.99
2018-09-04T07:24:09.636Z,18.05
2018-09-04T07:25:19.619Z,18.07
2018-09-04T07:26:29.464Z,18
2018-09-04T07:27:39.306Z,18.07
2018-09-04T07:28:49.151Z,18.03
2018-09-04T07:29:59.008Z,18.11
2018-09-04T07:31:08.594Z,18.07
2018-09-04T07:32:18.452Z,18.08
2018-09-04T07:33:28.023Z,18.05
2018-09-04T07:34:37.869Z,18.1
2018-09-04T07:35:47.446Z,18.21
2018-09-04T07:36:57.296Z,18.17
2018-09-04T07:38:06.600Z,18.26
2018-09-04T07:39:16.180Z,18.26
2018-09-04T07:40:26.025Z,18.26
2018-09-04T07:41:35.334Z,18.14
2018-09-04T07:42:44.373Z,18.29
2018-09-04T07:43:54.547Z,18.3
2018-09-04T07:45:04.439Z,18.33
2018-09-04T07:46:14.543Z,18.3
2018-09-04T07:47:24.121Z,18.35
2018-09-04T07:48:33.962Z,18.35
2018-09-04T07:49:43.535Z,18.44
2018-09-04T07:50:53.379Z,18.36
2018-09-04T07:52:03.229Z,18.51
2018-09-04T07:53:13.073Z,18.51
2018-09-04T07:54:22.925Z,18.54
2018-09-04T07:55:32.298Z,18.57
2018-09-04T07:56:41.875Z,18.63
2018-09-04T07:57:51.457Z,18.6
2018-09-04T07:59:00.548Z,18.67
2018-09-04T08:00:10.396Z,18.72
2018-09-04T08:01:20.011Z,18.67
2018-09-04T08:02:29.604Z,18.62
2018-09-04T08:03:39.460Z,18.78
2018-09-04T08:04:49.044Z,18.72
2018-09-04T08:05:58.349Z,18.75
2018-09-04T08:07:08.201Z,18.81
2018-09-04T08:08:17.780Z,18.85
2018-09-04T08:09:27.646Z,18.95
2018-09-04T08:10:37.504Z,18.92
2018-09-04T08:11:47.076Z,18.98
2018-09-04T08:12:56.379Z,18.9
2018-09-04T08:14:05.953Z,19.07
2018-09-04T08:15:15.796Z,19.08
2018-09-04T08:16:24.947Z,18.94
2018-09-04T08:17:34.946Z,18.88
2018-09-04T08:18:44.521Z,18.82
2018-09-04T08:19:54.383Z,18.91
2018-09-04T08:21:04.774Z,19
2018-09-04T08:22:14.899Z,18.95
2018-09-04T08:23:24.474Z,19.11
2018-09-04T08:24:34.321Z,19.06
2018-09-04T08:25:43.906Z,19.21
2018-09-04T08:26:53.747Z,19.19
2018-09-04T08:28:03.105Z,19.28
2018-09-04T08:29:12.411Z,19.19
2018-09-04T08:30:22.265Z,19.29
2018-09-04T08:31:31.838Z,19.37
2018-09-04T08:32:41.796Z,19.36
2018-09-04T08:33:52.055Z,19.39
2018-09-04T08:35:01.639Z,19.47
2018-09-04T08:36:11.223Z,19.51
2018-09-04T08:37:20.803Z,19.5
2018-09-04T08:38:30.669Z,19.56
2018-09-04T08:39:39.983Z,19.48
2018-09-04T08:40:49.841Z,19.56
2018-09-04T08:41:59.424Z,19.51
2018-09-04T08:43:08.736Z,19.59
2018-09-04T08:44:18.858Z,19.63
2018-09-04T08:45:28.698Z,19.71
2018-09-04T08:46:38.807Z,19.66
2018-09-04T08:47:48.226Z,19.68
2018-09-04T08:48:58.031Z,19.71
2018-09-04T08:50:07.913Z,19.76
2018-09-04T08:51:17.768Z,19.8
2018-09-04T08:52:27.353Z,19.74
2018-09-04T08:53:37.377Z,19.71
2018-09-04T08:54:47.668Z,19.69
2018-09-04T08:55:57.250Z,19.69
2018-09-04T08:57:07.375Z,19.68
2018-09-04T08:58:17.496Z,19.68
2018-09-04T08:59:27.074Z,19.71
2018-09-04T09:00:36.648Z,19.77
2018-09-04T09:01:46.495Z,19.91
2018-09-04T09:02:56.076Z,19.98
2018-09-04T09:04:05.926Z,19.86
2018-09-04T09:05:15.502Z,19.96
2018-09-04T09:06:25.428Z,20.03
2018-09-04T09:07:35.007Z,20.06
2018-09-04T09:08:45.180Z,20.1
2018-09-04T09:09:55.164Z,20.1
2018-09-04T09:11:05.110Z,20.1
2018-09-04T09:12:14.710Z,20.18
2018-09-04T09:13:24.289Z,20.29
2018-09-04T09:14:33.596Z,20.18
2018-09-04T09:15:43.439Z,20.21
2018-09-04T09:16:53.592Z,20.17
2018-09-04T09:18:02.902Z,20.2
2018-09-04T09:19:13.031Z,20.28
2018-09-04T09:20:22.341Z,20.23
2018-09-04T09:21:32.200Z,20.2
2018-09-04T09:22:42.367Z,20.29
2018-09-04T09:23:52.055Z,20.36
2018-09-04T09:25:01.640Z,20.39
2018-09-04T09:26:11.496Z,20.41
2018-09-04T09:27:21.623Z,20.35
2018-09-04T09:28:31.206Z,20.5
2018-09-04T09:29:40.787Z,20.48
2018-09-04T09:30:50.366Z,20.39
2018-09-04T09:32:00.268Z,20.54
2018-09-04T09:33:09.848Z,20.5
2018-09-04T09:34:19.700Z,20.52
2018-09-04T09:35:29.819Z,20.58
2018-09-04T09:36:40.026Z,20.58
2018-09-04T09:37:50.108Z,20.61
2018-09-04T09:38:59.687Z,20.74
2018-09-04T09:40:09.271Z,20.7
2018-09-04T09:41:19.129Z,20.77
2018-09-04T09:42:28.972Z,20.73
2018-09-04T09:43:39.144Z,20.76
2018-09-04T09:44:49.267Z,20.77
2018-09-04T09:45:58.844Z,20.72
2018-09-04T09:47:08.421Z,20.74
2018-09-04T09:48:18.276Z,20.77
2018-09-04T09:49:27.861Z,20.66
2018-09-04T09:50:36.972Z,20.66
2018-09-04T09:51:46.682Z,20.72
2018-09-04T09:52:57.047Z,20.77
2018-09-04T09:54:06.870Z,20.84
2018-09-04T09:55:16.383Z,20.92
2018-09-04T09:56:26.876Z,20.94
2018-09-04T09:57:36.755Z,21.04
2018-09-04T09:58:46.610Z,21.07
2018-09-04T09:59:56.809Z,21.09
2018-09-04T10:01:07.175Z,21.09
2018-09-04T10:02:16.742Z,21.13
2018-09-04T10:03:26.609Z,21.13
2018-09-04T10:04:36.190Z,21.21
2018-09-04T10:05:46.049Z,21.13
2018-09-04T10:06:56.184Z,21.14
2018-09-04T10:08:05.848Z,21.17
2018-09-04T10:09:15.815Z,21.22
2018-09-04T10:10:25.967Z,21.25
2018-09-04T10:11:36.184Z,21.35
2018-09-04T10:12:46.038Z,21.29
2018-09-04T10:13:55.886Z,21.35
2018-09-04T10:15:05.201Z,21.28
2018-09-04T10:16:15.324Z,21.32
2018-09-04T10:17:25.442Z,21.32
2018-09-04T10:18:34.531Z,21.27
2018-09-04T10:19:44.415Z,21.32
2018-09-04T10:20:54.663Z,21.27
2018-09-04T10:22:04.508Z,21.31
2018-09-04T10:23:14.360Z,21.32
2018-09-04T10:24:24.257Z,21.44
2018-09-04T10:25:33.830Z,21.46
2018-09-04T10:26:43.570Z,21.43
2018-09-04T10:27:53.416Z,21.54
2018-09-04T10:29:03.263Z,21.47
2018-09-04T10:30:12.852Z,21.53
2018-09-04T10:31:22.486Z,21.49
2018-09-04T10:32:32.071Z,21.46
2018-09-04T10:33:41.916Z,21.43
2018-09-04T10:34:51.759Z,21.44
2018-09-04T10:36:01.612Z,21.46
2018-09-04T10:37:11.785Z,21.65
2018-09-04T10:38:21.895Z,21.65
2018-09-04T10:39:32.019Z,21.65
2018-09-04T10:40:41.809Z,21.68
2018-09-04T10:41:51.560Z,21.65
2018-09-04T10:43:01.685Z,21.72
2018-09-04T10:44:11.841Z,21.71
2018-09-04T10:45:22.097Z,21.83
2018-09-04T10:46:31.676Z,21.79
2018-09-04T10:47:41.810Z,21.77
2018-09-04T10:48:51.657Z,21.88
2018-09-04T10:50:01.515Z,21.83
2018-09-04T10:51:11.371Z,21.88
2018-09-04T10:52:21.235Z,21.91
2018-09-04T10:53:31.128Z,21.9
2018-09-04T10:54:40.984Z,21.88
2018-09-04T10:55:50.473Z,21.92
2018-09-04T10:57:00.357Z,21.91
2018-09-04T10:58:09.936Z,21.98
2018-09-04T10:59:19.288Z,22.05
2018-09-04T11:00:28.326Z,21.98
2018-09-04T11:01:38.174Z,22.02
2018-09-04T11:02:48.021Z,22
2018-09-04T11:03:57.594Z,22.07
2018-09-04T11:05:06.642Z,22.07
2018-09-04T11:06:16.500Z,22.12
2018-09-04T11:07:26.356Z,22.07
2018-09-04T11:08:35.932Z,22.21
2018-09-04T11:09:46.623Z,22.18
2018-09-04T11:10:57.193Z,22.24
2018-09-04T11:12:07.337Z,22.33
2018-09-04T11:13:17.232Z,22.36
2018-09-04T11:14:26.804Z,22.37
2018-09-04T11:15:36.650Z,22.39
2018-09-04T11:16:46.227Z,22.42
2018-09-04T11:17:55.806Z,22.45
2018-09-04T11:19:05.654Z,22.51
2018-09-04T11:20:15.507Z,22.57
2018-09-04T11:21:25.360Z,22.64
2018-09-04T11:22:35.205Z,22.61
2018-09-04T11:23:44.651Z,22.7
2018-09-04T11:24:54.966Z,22.62
2018-09-04T11:26:04.814Z,22.64
2018-09-04T11:27:14.658Z,22.58
2018-09-04T11:28:24.797Z,22.61
2018-09-04T11:29:34.932Z,22.65
2018-09-04T11:30:45.363Z,22.76
2018-09-04T11:31:55.174Z,22.79
2018-09-04T11:33:05.014Z,22.83
2018-09-04T11:34:14.858Z,22.88
2018-09-04T11:35:24.702Z,22.98
2018-09-04T11:36:34.281Z,22.85
2018-09-04T11:37:44.460Z,22.85
2018-09-04T11:38:54.323Z,22.94
2018-09-04T11:40:03.356Z,23.02
2018-09-04T11:41:13.206Z,23.05
2018-09-04T11:42:23.061Z,23.07
2018-09-04T11:43:33.216Z,23.22
2018-09-04T11:44:42.250Z,23.19
2018-09-04T11:45:51.833Z,23.27
2018-09-04T11:47:02.354Z,23.25
2018-09-04T11:48:12.185Z,23.28
2018-09-04T11:49:21.493Z,23.31
2018-09-04T11:50:31.081Z,23.43
2018-09-04T11:51:40.123Z,23.43
2018-09-04T11:52:49.698Z,23.38
2018-09-04T11:53:59.818Z,23.36
2018-09-04T11:55:09.936Z,23.36
2018-09-04T11:56:19.513Z,23.48
2018-09-04T11:57:29.090Z,23.6
2018-09-04T11:58:38.446Z,23.6
2018-09-04T11:59:48.622Z,23.7
2018-09-04T12:00:57.936Z,23.75
2018-09-04T12:02:08.182Z,23.8
2018-09-04T12:03:18.007Z,23.94
2018-09-04T12:04:27.857Z,23.95
2018-09-04T12:05:37.539Z,23.98
2018-09-04T12:06:48.191Z,23.95
2018-09-04T12:07:57.789Z,24.12
2018-09-04T12:09:07.910Z,24.08
2018-09-04T12:10:18.079Z,24.13
2018-09-04T12:11:27.660Z,24.2
2018-09-04T12:12:38.106Z,24.2
2018-09-04T12:13:46.992Z,24.15
2018-09-04T12:14:56.846Z,24.18
2018-09-04T12:16:06.696Z,24.18
2018-09-04T12:17:16.816Z,24.18
2018-09-04T12:18:26.128Z,24.32
2018-09-04T12:19:35.440Z,24.34
2018-09-04T12:20:45.805Z,24.34
2018-09-04T12:21:55.765Z,24.35
2018-09-04T12:23:05.347Z,24.35
2018-09-04T12:24:15.196Z,24.34
2018-09-04T12:25:24.231Z,24.42
2018-09-04T12:26:33.538Z,24.5
2018-09-04T12:27:43.438Z,24.55
2018-09-04T12:28:53.023Z,24.53
2018-09-04T12:30:02.616Z,24.57
2018-09-04T12:31:11.664Z,24.6
2018-09-04T12:32:21.244Z,24.61
2018-09-04T12:33:30.560Z,24.65
2018-09-04T12:34:40.410Z,24.71
2018-09-04T12:35:50.284Z,24.67
2018-09-04T12:36:59.869Z,24.73
2018-09-04T12:38:09.182Z,24.78
2018-09-04T12:39:19.034Z,24.85
2018-09-04T12:40:28.348Z,24.87
2018-09-04T12:41:37.929Z,25
2018-09-04T12:42:48.046Z,25.06
2018-09-04T12:43:57.896Z,25.15
2018-09-04T12:45:07.744Z,25.14
2018-09-04T12:46:17.883Z,25.09
2018-09-04T12:47:28.009Z,25.13
2018-09-04T12:48:38.139Z,25.2
2018-09-04T12:49:48.755Z,25.25
2018-09-04T12:50:58.439Z,25.28
2018-09-04T12:52:08.415Z,25.38
2018-09-04T12:53:18.358Z,25.4
2018-09-04T12:54:28.319Z,25.43
2018-09-04T12:55:38.319Z,25.51
2018-09-04T12:56:47.686Z,25.61
2018-09-04T12:57:57.814Z,25.62
2018-09-04T12:59:07.410Z,25.51
2018-09-04T13:00:16.997Z,25.51
2018-09-04T13:01:26.580Z,25.54
2018-09-04T13:02:36.435Z,25.47
2018-09-04T13:03:46.017Z,25.43
2018-09-04T13:04:55.065Z,25.42
2018-09-04T13:06:04.657Z,25.51
2018-09-04T13:07:14.568Z,25.54
2018-09-04T13:08:24.422Z,25.64
2018-09-04T13:09:34.541Z,25.82
2018-09-04T13:10:44.392Z,25.75
2018-09-04T13:11:54.287Z,25.79
2018-09-04T13:13:04.142Z,25.85
2018-09-04T13:14:14.331Z,25.76
2018-09-04T13:15:23.924Z,25.87
2018-09-04T13:16:33.507Z,25.83
2018-09-04T13:17:42.816Z,25.76
2018-09-04T13:18:52.403Z,25.85
2018-09-04T13:20:01.998Z,25.9
2018-09-04T13:21:11.864Z,25.99
2018-09-04T13:22:21.986Z,26.09
2018-09-04T13:23:32.103Z,26.05
2018-09-04T13:24:42.227Z,26.05
2018-09-04T13:25:52.342Z,26.12
2018-09-04T13:27:01.922Z,26.29
2018-09-04T13:28:10.695Z,26.33
2018-09-04T13:29:20.288Z,26.37
2018-09-04T13:30:29.878Z,26.29
2018-09-04T13:31:39.996Z,26.44
2018-09-04T13:32:49.573Z,26.47
2018-09-04T13:33:59.693Z,26.45
2018-09-04T13:35:09.013Z,26.51
2018-09-04T13:36:18.339Z,26.47
2018-09-04T13:37:27.908Z,26.51
2018-09-04T13:38:37.224Z,26.54
2018-09-04T13:39:46.536Z,26.54
2018-09-04T13:40:56.116Z,26.58
2018-09-04T13:42:05.971Z,26.77
2018-09-04T13:43:15.560Z,26.8
2018-09-04T13:44:25.686Z,26.73
2018-09-04T13:45:35.289Z,26.88
2018-09-04T13:46:44.603Z,26.8
2018-09-04T13:47:54.247Z,26.92
2018-09-04T13:49:04.097Z,26.87
2018-09-04T13:50:14.037Z,26.89
2018-09-04T13:51:23.625Z,26.89
2018-09-04T13:52:33.751Z,27.03
2018-09-04T13:53:43.598Z,27.13
2018-09-04T13:54:53.195Z,27.14
2018-09-04T13:56:02.774Z,27.21
2018-09-04T13:57:11.907Z,27.29
2018-09-04T13:58:21.540Z,27.27
2018-09-04T13:59:31.142Z,27.39
2018-09-04T14:00:40.716Z,27.41
2018-09-04T14:01:50.300Z,27.43
2018-09-04T14:03:00.158Z,27.28
2018-09-04T14:04:09.745Z,27.37
2018-09-04T14:05:19.112Z,27.49
2018-09-04T14:06:28.702Z,27.46
2018-09-04T14:07:38.556Z,27.57
2018-09-04T14:08:48.145Z,27.74
2018-09-04T14:09:57.468Z,27.82
2018-09-04T14:11:06.859Z,27.94
2018-09-04T14:12:16.859Z,28
2018-09-04T14:13:26.449Z,28.18
2018-09-04T14:14:36.318Z,28.24
2018-09-04T14:15:45.908Z,28.37
2018-09-04T14:16:56.362Z,28.54
2018-09-04T14:18:06.251Z,28.41
2018-09-04T14:19:15.301Z,28.33
2018-09-04T14:20:25.165Z,28.54
2018-09-04T14:21:35.035Z,28.58
2018-09-04T14:22:44.618Z,28.52
2018-09-04T14:23:54.765Z,28.66
2018-09-04T14:25:04.624Z,28.77
2018-09-04T14:26:14.757Z,28.92
2018-09-04T14:27:24.346Z,29.15
2018-09-04T14:29:09.216Z,29.12
2018-09-04T14:30:59.184Z,29.16
2018-09-04T14:32:08.781Z,29.33
2018-09-04T14:33:18.643Z,29.36
2018-09-04T14:34:28.285Z,29.39
2018-09-04T14:35:37.883Z,29.27
2018-09-04T14:36:47.772Z,29.36
2018-09-04T14:37:57.885Z,29.34
2018-09-04T14:39:07.743Z,29.48
2018-09-04T14:40:17.612Z,29.6
2018-09-04T14:41:26.945Z,29.65
2018-09-04T14:42:36.809Z,29.65
2018-09-04T14:43:46.693Z,29.86
2018-09-04T14:44:56.673Z,29.87
2018-09-04T14:46:06.500Z,29.78
2018-09-04T14:47:16.367Z,29.8
2018-09-04T14:48:26.499Z,29.85
2018-09-04T14:49:36.360Z,29.82
2018-09-04T14:50:46.734Z,29.8
2018-09-04T14:51:56.606Z,29.83
2018-09-04T14:53:06.468Z,29.68
2018-09-04T14:54:15.795Z,29.64
2018-09-04T14:55:25.660Z,29.78
2018-09-04T14:56:35.794Z,29.64
2018-09-04T14:57:45.658Z,29.64
2018-09-04T14:58:55.525Z,29.67
2018-09-04T15:00:05.402Z,29.67
2018-09-04T15:01:15.275Z,29.65
2018-09-04T15:02:25.142Z,29.63